Terminal Aerodrome Forecast
Issued by NWS

Home | Current Version | Previous Version | Text Only | Print | Product List | Glossary On
Versions: 1 2 3 4 5 6 7 8 9 10 11 12 13
000
FTUS44 KLZK 211700
TAFHRO
TAF
KHRO 211738Z 2118/2218 23010G16KT P6SM FEW040
     FM220100 18005KT P6SM SKC
     FM221200 20010KT P6SM SKC=

USA.gov is the U.S. government's official web portal to all federal, state and local government web resources and services.